createdAt,value
2017-04-23T00:00:08.421Z,10.13
2017-04-23T00:00:30.167Z,10.18
2017-04-23T00:00:56.658Z,10.26
2017-04-23T00:01:18.366Z,10.28
2017-04-23T00:01:40.173Z,10.30
2017-04-23T00:02:11.446Z,10.28
2017-04-23T00:02:33.141Z,10.26
2017-04-23T00:03:09.178Z,10.22
2017-04-23T00:03:31.673Z,10.17
2017-04-23T00:03:58.233Z,10.11
2017-04-23T00:04:29.496Z,10.10
2017-04-23T00:04:51.308Z,10.12
2017-04-23T00:05:58.691Z,10.23
2017-04-23T00:06:20.478Z,10.14
2017-04-23T00:06:46.968Z,10.18
2017-04-23T00:07:08.676Z,10.16
2017-04-23T00:07:44.708Z,10.22
2017-04-23T00:08:07.209Z,10.30
2017-04-23T00:08:28.931Z,10.24
2017-04-23T00:09:00.263Z,10.26
2017-04-23T00:09:22.009Z,10.23
2017-04-23T00:09:43.711Z,10.28
2017-04-23T00:10:10.284Z,10.26
2017-04-23T00:10:32.024Z,10.22
2017-04-23T00:11:08.048Z,10.06
2017-04-23T00:11:30.399Z,10.06
2017-04-23T00:11:56.871Z,10.07
2017-04-23T00:12:23.367Z,9.98
2017-04-23T00:12:45.114Z,10.00
2017-04-23T00:13:16.364Z,10.01
2017-04-23T00:13:38.082Z,10.00
2017-04-23T00:14:09.429Z,9.92
2017-04-23T00:14:31.148Z,9.95
2017-04-23T00:15:02.406Z,9.97
2017-04-23T00:15:24.206Z,9.98
2017-04-23T00:16:00.243Z,9.90
2017-04-23T00:16:22.518Z,9.92
2017-04-23T00:16:44.308Z,9.99
2017-04-23T00:17:10.791Z,10.03
2017-04-23T00:17:32.524Z,10.07
2017-04-23T00:18:03.833Z,10.09
2017-04-23T00:18:25.569Z,10.13
2017-04-23T00:18:47.298Z,10.16
2017-04-23T00:19:18.624Z,10.13
2017-04-23T00:19:40.352Z,10.14
2017-04-23T00:20:02.064Z,10.07
2017-04-23T00:20:28.566Z,10.13
2017-04-23T00:20:50.375Z,10.12
2017-04-23T00:21:12.128Z,10.14
2017-04-23T00:21:43.388Z,9.97
2017-04-23T00:22:05.196Z,9.95
2017-04-23T00:22:26.920Z,9.90
2017-04-23T00:22:58.182Z,9.83
2017-04-23T00:23:19.962Z,9.84
2017-04-23T00:23:46.433Z,9.90
2017-04-23T00:24:08.166Z,9.87
2017-04-23T00:24:39.515Z,9.76
2017-04-23T00:25:01.258Z,9.64
2017-04-23T00:25:22.991Z,9.68
2017-04-23T00:25:54.301Z,9.80
2017-04-23T00:26:16.117Z,9.86
2017-04-23T00:26:42.638Z,9.94
2017-04-23T00:27:04.345Z,9.93
2017-04-23T00:27:57.422Z,9.98
2017-04-23T00:28:33.478Z,9.97
2017-04-23T00:28:55.831Z,9.98
2017-04-23T00:29:17.555Z,9.99
2017-04-23T00:29:48.819Z,9.97
2017-04-23T00:30:10.616Z,9.93
2017-04-23T00:30:37.097Z,9.94
2017-04-23T00:30:58.807Z,9.98
2017-04-23T00:31:20.657Z,9.94
2017-04-23T00:31:47.266Z,9.91
2017-04-23T00:32:09.081Z,9.91
2017-04-23T00:32:40.419Z,9.92
2017-04-23T00:33:02.222Z,9.96
2017-04-23T00:33:33.471Z,9.98
2017-04-23T00:33:55.181Z,9.99
2017-04-23T00:34:26.516Z,9.99
2017-04-23T00:34:48.231Z,9.75
2017-04-23T00:35:19.486Z,9.64
2017-04-23T00:35:41.303Z,9.69
2017-04-23T00:36:12.550Z,9.82
2017-04-23T00:36:34.296Z,9.87
2017-04-23T00:37:05.622Z,9.67
2017-04-23T00:37:27.342Z,9.72
2017-04-23T00:37:49.061Z,9.71
2017-04-23T00:38:20.383Z,9.78
2017-04-23T00:38:42.097Z,9.82
2017-04-23T00:39:13.371Z,9.91
2017-04-23T00:39:35.154Z,9.80
2017-04-23T00:40:09.259Z,9.67
2017-04-23T00:40:35.757Z,9.54
2017-04-23T00:40:57.547Z,9.52
2017-04-23T00:41:28.803Z,9.39
2017-04-23T00:41:50.541Z,9.39
2017-04-23T00:42:26.583Z,9.50
2017-04-23T00:42:48.943Z,9.63
2017-04-23T00:43:15.448Z,9.74
2017-04-23T00:44:49.242Z,9.81
2017-04-23T00:45:15.783Z,9.75
2017-04-23T00:45:37.482Z,9.76
2017-04-23T00:45:59.224Z,9.70
2017-04-23T00:46:25.711Z,9.63
2017-04-23T00:46:47.515Z,9.61
2017-04-23T00:47:18.787Z,9.62
2017-04-23T00:47:40.502Z,9.63
2017-04-23T00:48:02.320Z,9.62
2017-04-23T00:48:28.815Z,9.41
2017-04-23T00:48:50.552Z,9.43
2017-04-23T00:49:17.124Z,9.52
2017-04-23T00:49:38.851Z,9.56
2017-04-23T00:50:10.101Z,9.62
2017-04-23T00:50:31.883Z,9.56
2017-04-23T00:50:53.627Z,9.51
2017-04-23T00:51:20.137Z,9.52
2017-04-23T00:51:41.936Z,9.60
2017-04-23T00:52:17.985Z,9.70
2017-04-23T00:52:40.303Z,9.72
2017-04-23T00:53:02.079Z,9.70
2017-04-23T00:53:28.573Z,9.74
2017-04-23T00:53:50.289Z,9.75
2017-04-23T00:54:12.009Z,9.73
2017-04-23T00:54:38.598Z,9.64
2017-04-23T00:55:00.320Z,9.67
2017-04-23T00:55:26.800Z,9.58
2017-04-23T00:55:48.522Z,9.63
2017-04-23T00:56:19.881Z,9.60
2017-04-23T00:56:41.670Z,9.66
2017-04-23T00:57:12.997Z,9.71
2017-04-23T00:57:34.816Z,9.67
2017-04-23T00:58:01.393Z,9.68
2017-04-23T00:58:23.137Z,9.76
2017-04-23T00:58:44.843Z,9.61
2017-04-23T00:59:16.192Z,9.52
2017-04-23T00:59:37.916Z,9.50
2017-04-23T00:59:59.625Z,9.51
2017-04-23T01:01:06.972Z,9.45
2017-04-23T01:01:28.861Z,9.41
2017-04-23T01:01:50.563Z,9.40
2017-04-23T01:02:21.916Z,9.39
2017-04-23T01:02:43.653Z,9.47
2017-04-23T01:03:51.032Z,9.24
2017-04-23T01:04:12.749Z,9.38
2017-04-23T01:05:20.105Z,9.47
2017-04-23T01:05:41.828Z,9.33
2017-04-23T01:06:03.572Z,9.26
2017-04-23T01:06:34.898Z,9.39
2017-04-23T01:06:56.655Z,9.45
2017-04-23T01:07:18.367Z,9.51
2017-04-23T01:07:44.899Z,9.59
2017-04-23T01:08:06.711Z,9.63
2017-04-23T01:08:33.198Z,9.44
2017-04-23T01:08:54.917Z,9.24
2017-04-23T01:09:16.729Z,9.26
2017-04-23T01:10:19.253Z,9.44
2017-04-23T01:10:45.984Z,9.53
2017-04-23T01:11:53.301Z,9.39
2017-04-23T01:12:15.129Z,9.40
2017-04-23T01:12:41.958Z,9.47
2017-04-23T01:13:03.765Z,9.47
2017-04-23T01:13:30.349Z,9.52
2017-04-23T01:13:52.129Z,9.60
2017-04-23T01:14:54.890Z,9.52
2017-04-23T01:15:30.918Z,9.57
2017-04-23T01:15:53.491Z,9.58
2017-04-23T01:16:15.217Z,9.36
2017-04-23T01:16:36.952Z,9.09
2017-04-23T01:16:58.692Z,8.93
2017-04-23T01:17:23.124Z,8.95
2017-04-23T01:17:45.134Z,8.99
2017-04-23T01:18:11.685Z,8.99
2017-04-23T01:18:38.310Z,9.10
2017-04-23T01:19:00.322Z,9.15
2017-04-23T01:20:17.209Z,9.46
2017-04-23T01:20:39.434Z,9.59
2017-04-23T01:21:01.188Z,9.62
2017-04-23T01:21:23.016Z,9.65
2017-04-23T01:21:45.006Z,9.65
2017-04-23T01:22:06.728Z,9.72
2017-04-23T01:22:31.102Z,9.72
2017-04-23T01:22:55.571Z,9.62
2017-04-23T01:23:17.190Z,9.40
2017-04-23T01:23:38.988Z,9.20
2017-04-23T01:24:00.765Z,9.21
2017-04-23T01:24:22.532Z,9.28
2017-04-23T01:24:44.273Z,9.31
2017-04-23T01:25:06.049Z,9.42
2017-04-23T01:25:27.812Z,9.47
2017-04-23T01:25:49.545Z,9.37
2017-04-23T01:26:11.315Z,9.36
2017-04-23T01:26:33.089Z,9.45
2017-04-23T01:26:54.838Z,9.54
2017-04-23T01:27:16.640Z,9.65
2017-04-23T01:27:41.328Z,9.71
2017-04-23T01:28:03.168Z,9.71
2017-04-23T01:28:24.962Z,9.71
2017-04-23T01:28:46.711Z,9.69
2017-04-23T01:29:08.571Z,9.65
2017-04-23T01:29:30.283Z,9.59
2017-04-23T01:29:52.024Z,9.50
2017-04-23T01:30:16.646Z,9.55
2017-04-23T01:30:43.306Z,9.61
2017-04-23T01:31:09.825Z,9.64
2017-04-23T01:31:34.320Z,9.73
2017-04-23T01:32:00.818Z,9.61
2017-04-23T01:32:22.602Z,9.54
2017-04-23T01:32:53.888Z,9.57
2017-04-23T01:33:15.697Z,9.58
2017-04-23T01:33:37.506Z,9.57
2017-04-23T01:34:04.053Z,9.56
2017-04-23T01:34:25.829Z,9.58
2017-04-23T01:35:22.826Z,9.44
2017-04-23T01:35:58.859Z,9.47
2017-04-23T01:36:23.943Z,9.52
2017-04-23T01:37:31.515Z,9.44
2017-04-23T01:38:07.548Z,9.48
2017-04-23T01:38:44.279Z,9.57
2017-04-23T01:39:20.837Z,9.54
2017-04-23T01:39:43.264Z,9.40
2017-04-23T01:40:05.046Z,9.29
2017-04-23T01:41:12.683Z,9.17
2017-04-23T01:41:34.409Z,9.21
2017-04-23T01:42:00.926Z,9.22
2017-04-23T01:42:22.673Z,9.27
2017-04-23T01:43:29.998Z,9.12
2017-04-23T01:43:56.629Z,9.06
2017-04-23T01:44:18.434Z,9.07
2017-04-23T01:44:49.849Z,9.03
2017-04-23T01:45:11.619Z,8.98
2017-04-23T01:45:42.897Z,9.00
2017-04-23T01:46:04.616Z,9.01
2017-04-23T01:46:31.173Z,9.09
2017-04-23T01:46:52.887Z,9.09
2017-04-23T01:47:14.912Z,9.02
2017-04-23T01:47:41.652Z,8.86
2017-04-23T01:48:35.045Z,8.99
2017-04-23T01:48:57.464Z,9.10
2017-04-23T01:49:24.538Z,9.18
2017-04-23T01:49:46.530Z,9.31
2017-04-23T01:50:18.054Z,9.36
2017-04-23T01:50:39.918Z,9.43
2017-04-23T01:51:06.442Z,9.41
2017-04-23T01:51:28.188Z,9.29
2017-04-23T01:51:54.680Z,9.14
2017-04-23T01:52:16.607Z,9.12
2017-04-23T01:52:52.668Z,9.02
2017-04-23T01:53:19.601Z,8.92
2017-04-23T01:53:55.685Z,8.96
2017-04-23T01:54:18.055Z,8.99
2017-04-23T01:54:39.943Z,9.05
2017-04-23T01:55:07.642Z,9.06
2017-04-23T01:55:29.471Z,9.10
2017-04-23T01:55:51.271Z,9.10
2017-04-23T01:56:13.029Z,9.03
2017-04-23T01:56:34.801Z,9.15
2017-04-23T01:56:56.606Z,9.17
2017-04-23T01:57:18.436Z,9.13
2017-04-23T01:57:43.042Z,9.10
2017-04-23T01:58:04.801Z,9.06
2017-04-23T01:58:36.070Z,8.98
2017-04-23T01:58:57.881Z,9.00
2017-04-23T01:59:19.731Z,9.01
2017-04-23T01:59:41.516Z,8.95
2017-04-23T02:00:03.254Z,9.08
2017-04-23T02:00:24.968Z,9.05
2017-04-23T02:00:49.119Z,9.03
2017-04-23T02:01:10.929Z,9.08
2017-04-23T02:01:32.778Z,9.03
2017-04-23T02:01:54.567Z,8.89
2017-04-23T02:02:16.324Z,8.88
2017-04-23T02:02:41.104Z,8.83
2017-04-23T02:03:02.835Z,8.83
2017-04-23T02:03:24.745Z,8.76
2017-04-23T02:03:49.422Z,8.74
2017-04-23T02:04:13.269Z,8.72
2017-04-23T02:04:35.022Z,8.76
2017-04-23T02:04:56.801Z,8.77
2017-04-23T02:05:18.597Z,8.80
2017-04-23T02:05:40.464Z,8.80
2017-04-23T02:06:02.342Z,8.73
2017-04-23T02:06:24.207Z,8.72
2017-04-23T02:06:46.001Z,8.70
2017-04-23T02:07:07.724Z,8.67
2017-04-23T02:07:29.488Z,8.66
2017-04-23T02:07:53.824Z,8.63
2017-04-23T02:09:05.930Z,8.63
2017-04-23T02:10:15.867Z,8.73
2017-04-23T02:10:45.007Z,8.78
2017-04-23T02:11:06.858Z,8.76
2017-04-23T02:11:31.517Z,8.70
2017-04-23T02:11:53.271Z,8.71
2017-04-23T02:12:15.037Z,8.78
2017-04-23T02:12:41.604Z,8.83
2017-04-23T02:13:03.457Z,8.82
2017-04-23T02:13:30.351Z,8.85
2017-04-23T02:13:52.191Z,8.83
2017-04-23T02:14:18.779Z,8.86
2017-04-23T02:14:40.588Z,8.78
2017-04-23T02:15:07.309Z,8.87
2017-04-23T02:15:29.106Z,8.85
2017-04-23T02:15:55.634Z,8.72
2017-04-23T02:16:17.352Z,8.75
2017-04-23T02:16:44.246Z,8.69
2017-04-23T02:17:06.019Z,8.68
2017-04-23T02:17:32.880Z,8.68
2017-04-23T02:18:09.127Z,8.76
2017-04-23T02:18:36.037Z,8.76
2017-04-23T02:18:57.734Z,8.69
2017-04-23T02:19:19.425Z,8.68
2017-04-23T02:19:41.271Z,8.63
2017-04-23T02:20:03.006Z,8.67
2017-04-23T02:20:24.787Z,8.68
2017-04-23T02:20:49.233Z,8.50
2017-04-23T02:21:11.018Z,8.51
2017-04-23T02:21:32.761Z,8.57
2017-04-23T02:21:57.225Z,8.57
2017-04-23T02:22:19.394Z,8.61
2017-04-23T02:22:41.145Z,8.66
2017-04-23T02:23:02.900Z,8.67
2017-04-23T02:24:01.349Z,8.56
2017-04-23T02:24:23.059Z,8.52
2017-04-23T02:24:44.788Z,8.67
2017-04-23T02:25:06.569Z,8.68
2017-04-23T02:25:28.268Z,8.72
2017-04-23T02:25:59.516Z,8.80
2017-04-23T02:26:21.313Z,8.69
2017-04-23T02:26:47.809Z,8.70
2017-04-23T02:27:09.536Z,8.74
2017-04-23T02:27:31.326Z,8.71
2017-04-23T02:28:02.583Z,8.70
2017-04-23T02:28:24.306Z,8.74
2017-04-23T02:28:55.671Z,8.77
2017-04-23T02:29:17.374Z,8.81
2017-04-23T02:29:53.412Z,8.84
2017-04-23T02:30:15.719Z,8.85
2017-04-23T02:30:37.412Z,8.86
2017-04-23T02:31:08.656Z,8.88
2017-04-23T02:31:30.472Z,8.87
2017-04-23T02:31:52.161Z,8.83
2017-04-23T02:32:13.870Z,8.74
2017-04-23T02:32:35.566Z,8.74
2017-04-23T02:32:57.386Z,8.70
2017-04-23T02:33:23.852Z,8.64
2017-04-23T02:33:45.555Z,8.57
2017-04-23T02:34:07.276Z,8.50
2017-04-23T02:34:33.854Z,8.49
2017-04-23T02:34:55.561Z,8.57
2017-04-23T02:35:17.261Z,8.64
2017-04-23T02:35:43.832Z,8.67
2017-04-23T02:36:05.526Z,8.69
2017-04-23T02:37:08.125Z,8.76
2017-04-23T02:37:29.844Z,8.81
2017-04-23T02:38:01.092Z,8.85
2017-04-23T02:38:22.894Z,8.80
2017-04-23T02:38:44.596Z,8.70
2017-04-23T02:39:11.091Z,8.72
2017-04-23T02:39:32.866Z,8.79
2017-04-23T02:40:08.891Z,8.75
2017-04-23T02:40:31.172Z,8.52
2017-04-23T02:40:52.989Z,8.48
2017-04-23T02:41:19.477Z,8.57
2017-04-23T02:41:41.162Z,8.54
2017-04-23T02:42:07.716Z,8.60
2017-04-23T02:42:29.424Z,8.55
2017-04-23T02:42:51.135Z,8.62
2017-04-23T02:43:27.157Z,8.74
2017-04-23T02:43:49.652Z,8.78
2017-04-23T02:44:20.901Z,8.79
2017-04-23T02:44:42.693Z,8.79
2017-04-23T02:45:04.403Z,8.77
2017-04-23T02:45:30.877Z,8.70
2017-04-23T02:45:52.598Z,8.71
2017-04-23T02:46:19.155Z,8.63
2017-04-23T02:46:40.892Z,8.65
2017-04-23T02:47:12.163Z,8.57
2017-04-23T02:47:33.993Z,8.60
2017-04-23T02:48:05.244Z,8.62
2017-04-23T02:48:26.947Z,8.65
2017-04-23T02:48:58.282Z,8.61
2017-04-23T02:49:19.990Z,8.61
2017-04-23T02:49:46.468Z,8.64
2017-04-23T02:50:08.171Z,8.61
2017-04-23T02:50:29.979Z,8.56
2017-04-23T02:50:56.455Z,8.65
2017-04-23T02:51:18.151Z,8.64
2017-04-23T02:51:39.954Z,8.63
2017-04-23T02:52:11.215Z,8.62
2017-04-23T02:52:32.911Z,8.60
2017-04-23T02:52:54.721Z,8.61
2017-04-23T02:53:16.455Z,8.59
2017-04-23T02:53:40.438Z,8.34
2017-04-23T02:54:06.965Z,8.28
2017-04-23T02:54:28.676Z,8.31
2017-04-23T02:54:50.397Z,8.28
2017-04-23T02:55:17.010Z,8.35
2017-04-23T02:55:38.729Z,8.36
2017-04-23T02:56:05.218Z,8.33
2017-04-23T02:56:26.928Z,8.41
2017-04-23T02:56:58.275Z,8.35
2017-04-23T02:57:19.971Z,8.45
2017-04-23T02:57:51.220Z,8.49
2017-04-23T02:58:13.015Z,8.50
2017-04-23T02:58:34.738Z,8.56
2017-04-23T02:59:01.219Z,8.53
2017-04-23T02:59:23.021Z,8.46
2017-04-23T02:59:59.054Z,8.51
2017-04-23T03:00:21.322Z,8.45
2017-04-23T03:00:43.110Z,8.43
2017-04-23T03:01:09.586Z,8.44
2017-04-23T03:01:31.292Z,8.47
2017-04-23T03:02:02.635Z,8.53
2017-04-23T03:02:24.332Z,8.46
2017-04-23T03:02:46.043Z,8.53
2017-04-23T03:03:12.593Z,8.38
2017-04-23T03:03:34.296Z,8.36
2017-04-23T03:04:00.786Z,8.30
2017-04-23T03:04:22.493Z,8.25
2017-04-23T03:04:44.288Z,8.25
2017-04-23T03:05:10.757Z,8.21
2017-04-23T03:05:32.447Z,8.19
2017-04-23T03:06:03.784Z,8.24
2017-04-23T03:06:25.480Z,8.34
2017-04-23T03:06:47.198Z,8.39
2017-04-23T03:07:13.692Z,8.43
2017-04-23T03:07:35.381Z,8.44
2017-04-23T03:08:11.408Z,8.31
2017-04-23T03:08:33.668Z,8.31
2017-04-23T03:08:55.461Z,8.27
2017-04-23T03:09:57.983Z,8.21
2017-04-23T03:10:24.547Z,8.24
2017-04-23T03:10:46.245Z,8.24
2017-04-23T03:11:07.969Z,8.20
2017-04-23T03:11:39.299Z,8.28
2017-04-23T03:12:00.992Z,8.35
2017-04-23T03:12:32.248Z,8.24
2017-04-23T03:12:54.043Z,8.21
2017-04-23T03:13:25.307Z,8.19
2017-04-23T03:13:51.774Z,8.12
2017-04-23T03:14:18.338Z,8.07
2017-04-23T03:14:40.043Z,8.09
2017-04-23T03:15:47.405Z,8.14
2017-04-23T03:16:09.132Z,8.17
2017-04-23T03:16:30.851Z,8.09
2017-04-23T03:17:02.131Z,8.10
2017-04-23T03:17:23.845Z,8.09
2017-04-23T03:17:45.587Z,8.00
2017-04-23T03:18:16.946Z,7.83
2017-04-23T03:18:38.673Z,7.86
2017-04-23T03:19:14.695Z,7.96
2017-04-23T03:19:37.080Z,7.98
2017-04-23T03:19:58.782Z,8.05
2017-04-23T03:20:30.040Z,8.04
2017-04-23T03:20:51.889Z,8.04
2017-04-23T03:21:13.586Z,7.94
2017-04-23T03:21:44.926Z,8.04
2017-04-23T03:22:06.707Z,8.10
2017-04-23T03:22:28.502Z,8.16
2017-04-23T03:22:50.217Z,8.12
2017-04-23T03:23:11.929Z,8.19
2017-04-23T03:23:33.634Z,8.19
2017-04-23T03:24:00.237Z,8.14
2017-04-23T03:24:21.927Z,8.12
2017-04-23T03:24:53.179Z,8.16
2017-04-23T03:25:14.980Z,8.14
2017-04-23T03:26:17.490Z,8.19
2017-04-23T03:26:39.310Z,8.17
2017-04-23T03:27:01.030Z,8.16
2017-04-23T03:27:27.513Z,8.24
2017-04-23T03:27:49.320Z,8.30
2017-04-23T03:28:15.818Z,8.38
2017-04-23T03:28:37.540Z,8.36
2017-04-23T03:29:04.144Z,8.17
2017-04-23T03:29:25.880Z,8.23
2017-04-23T03:29:50.377Z,8.20
2017-04-23T03:30:16.956Z,8.22
2017-04-23T03:30:38.660Z,8.13
2017-04-23T03:31:00.367Z,8.01
2017-04-23T03:31:31.821Z,8.04
2017-04-23T03:31:56.204Z,8.04
2017-04-23T03:32:22.689Z,8.03
2017-04-23T03:32:44.382Z,8.07
2017-04-23T03:33:10.856Z,8.08
2017-04-23T03:33:32.559Z,8.06
2017-04-23T03:33:54.266Z,8.03
2017-04-23T03:34:20.818Z,8.01
2017-04-23T03:34:42.697Z,8.00
2017-04-23T03:35:50.089Z,7.90
2017-04-23T03:36:11.918Z,7.86
2017-04-23T03:37:19.196Z,7.68
2017-04-23T03:37:40.997Z,7.65
2017-04-23T03:38:02.701Z,7.71
2017-04-23T03:38:34.065Z,7.76
2017-04-23T03:38:55.880Z,7.83
2017-04-23T03:39:17.651Z,7.87
2017-04-23T03:39:48.969Z,7.91
2017-04-23T03:40:10.680Z,7.85
2017-04-23T03:40:32.384Z,7.86
2017-04-23T03:41:03.749Z,7.92
2017-04-23T03:41:25.468Z,7.92
2017-04-23T03:41:47.196Z,7.91
2017-04-23T03:42:18.548Z,7.82
2017-04-23T03:42:40.259Z,7.80
2017-04-23T03:43:06.748Z,7.80
2017-04-23T03:43:28.454Z,7.76
2017-04-23T03:43:55.029Z,7.80
2017-04-23T03:44:16.748Z,7.75
2017-04-23T03:44:43.254Z,7.79
2017-04-23T03:45:04.962Z,7.79
2017-04-23T03:45:34.261Z,7.84
2017-04-23T03:45:55.972Z,7.79
2017-04-23T03:46:22.446Z,7.68
2017-04-23T03:46:44.221Z,7.59
2017-04-23T03:47:10.700Z,7.62
2017-04-23T03:47:32.491Z,7.63
2017-04-23T03:47:59.048Z,7.63
2017-04-23T03:48:20.766Z,7.51
2017-04-23T03:48:42.460Z,7.46
2017-04-23T03:49:13.807Z,7.40
2017-04-23T03:49:35.540Z,7.51
2017-04-23T03:49:57.256Z,7.49
2017-04-23T03:50:18.963Z,7.50
2017-04-23T03:50:40.749Z,7.61
2017-04-23T03:51:48.046Z,7.48
2017-04-23T03:52:09.881Z,7.47
2017-04-23T03:52:36.394Z,7.42
2017-04-23T03:52:58.094Z,7.50
2017-04-23T03:53:34.129Z,7.37
2017-04-23T03:53:56.584Z,7.37
2017-04-23T03:54:18.307Z,7.44
2017-04-23T03:54:44.792Z,7.52
2017-04-23T03:55:06.609Z,7.55
2017-04-23T03:55:37.869Z,7.47
2017-04-23T03:55:59.584Z,7.60
2017-04-23T03:56:21.406Z,7.70
2017-04-23T03:56:47.879Z,7.61
2017-04-23T03:57:09.619Z,7.48
2017-04-23T03:57:45.808Z,7.17
2017-04-23T03:58:08.151Z,7.09
2017-04-23T03:58:44.188Z,7.17
2017-04-23T03:59:06.462Z,7.26
2017-04-23T03:59:28.177Z,7.30
2017-04-23T03:59:54.694Z,7.38
2017-04-23T04:00:16.426Z,7.43
2017-04-23T04:00:47.772Z,7.54
2017-04-23T04:01:09.481Z,7.61
2017-04-23T04:01:31.236Z,7.56
2017-04-23T04:01:57.711Z,7.54
2017-04-23T04:02:19.535Z,7.35
2017-04-23T04:02:41.270Z,7.23
2017-04-23T04:03:07.762Z,7.30
2017-04-23T04:03:29.462Z,7.29
2017-04-23T04:03:56.031Z,7.22
2017-04-23T04:04:17.733Z,7.22
2017-04-23T04:04:39.441Z,7.20
2017-04-23T04:05:05.957Z,7.31
2017-04-23T04:05:27.765Z,7.39
2017-04-23T04:05:52.336Z,7.32
2017-04-23T04:06:14.048Z,7.26
2017-04-23T04:06:35.773Z,7.30
2017-04-23T04:07:02.318Z,7.30
2017-04-23T04:07:24.042Z,7.28
2017-04-23T04:07:45.759Z,7.15
2017-04-23T04:08:12.310Z,7.07
2017-04-23T04:08:34.048Z,7.00
2017-04-23T04:09:00.525Z,7.03
2017-04-23T04:09:22.247Z,7.07
2017-04-23T04:09:44.058Z,7.19
2017-04-23T04:10:20.088Z,7.15
2017-04-23T04:10:42.353Z,7.15
2017-04-23T04:11:04.144Z,7.08
2017-04-23T04:11:25.900Z,7.10
2017-04-23T04:11:52.395Z,7.05
2017-04-23T04:12:14.118Z,7.16
2017-04-23T04:12:40.684Z,7.14
2017-04-23T04:13:02.405Z,7.06
2017-04-23T04:13:24.113Z,7.00
2017-04-23T04:13:50.700Z,6.93
2017-04-23T04:14:12.420Z,6.92
2017-04-23T04:14:38.899Z,6.93
2017-04-23T04:15:00.611Z,6.94
2017-04-23T04:16:03.134Z,6.65
2017-04-23T04:16:24.831Z,6.57
2017-04-23T04:17:27.349Z,6.71
2017-04-23T04:17:49.071Z,6.85
2017-04-23T04:18:25.115Z,6.90
2017-04-23T04:18:50.352Z,6.94
2017-04-23T04:19:12.057Z,6.97
2017-04-23T04:19:43.393Z,7.09
2017-04-23T04:20:05.120Z,7.12
2017-04-23T04:20:36.383Z,7.15
2017-04-23T04:20:58.182Z,7.17
2017-04-23T04:21:19.907Z,7.17
2017-04-23T04:21:51.173Z,7.20
2017-04-23T04:22:12.960Z,7.27
2017-04-23T04:22:34.655Z,7.15
2017-04-23T04:23:05.901Z,7.03
2017-04-23T04:23:27.728Z,7.05
2017-04-23T04:23:54.222Z,7.01
2017-04-23T04:24:15.931Z,6.87
2017-04-23T04:24:42.489Z,6.90
2017-04-23T04:25:04.207Z,6.76
2017-04-23T04:25:25.915Z,6.82
2017-04-23T04:25:52.466Z,6.81
2017-04-23T04:26:14.185Z,6.78
2017-04-23T04:26:40.746Z,6.86
2017-04-23T04:27:07.314Z,6.83
2017-04-23T04:27:29.152Z,6.85
2017-04-23T04:27:50.882Z,6.96
2017-04-23T04:28:12.578Z,7.03
2017-04-23T04:28:34.304Z,7.03
2017-04-23T04:28:56.129Z,7.04
2017-04-23T04:29:17.869Z,7.12
2017-04-23T04:29:39.589Z,7.21
2017-04-23T04:30:01.306Z,7.27
2017-04-23T04:30:23.112Z,7.36
2017-04-23T04:30:49.589Z,7.40
2017-04-23T04:31:11.323Z,7.50
2017-04-23T04:31:42.658Z,7.43
2017-04-23T04:32:04.385Z,7.19
2017-04-23T04:32:35.640Z,7.22
2017-04-23T04:32:57.464Z,7.23
2017-04-23T04:33:23.960Z,7.07
2017-04-23T04:33:45.671Z,6.96
2017-04-23T04:34:07.389Z,6.90
2017-04-23T04:34:43.411Z,6.89
2017-04-23T04:35:05.896Z,6.91
2017-04-23T04:35:27.635Z,6.93
2017-04-23T04:36:03.660Z,7.03
2017-04-23T04:36:26.027Z,6.87
2017-04-23T04:36:47.757Z,6.81
2017-04-23T04:37:19.113Z,6.85
2017-04-23T04:37:40.841Z,6.86
2017-04-23T04:38:07.329Z,6.89
2017-04-23T04:38:29.038Z,6.86
2017-04-23T04:38:55.674Z,6.94
2017-04-23T04:39:17.391Z,6.86
2017-04-23T04:39:39.096Z,6.81
2017-04-23T04:40:15.123Z,6.82
2017-04-23T04:40:37.640Z,6.86
2017-04-23T04:41:08.901Z,6.96
2017-04-23T04:41:30.679Z,6.95
2017-04-23T04:41:52.401Z,7.00
2017-04-23T04:42:18.889Z,7.02
2017-04-23T04:42:40.598Z,6.98
2017-04-23T04:43:16.634Z,7.01
2017-04-23T04:43:38.999Z,7.06
2017-04-23T04:44:10.272Z,7.18
2017-04-23T04:44:32.074Z,7.22
2017-04-23T04:45:08.105Z,7.21
2017-04-23T04:45:30.399Z,7.23
2017-04-23T04:47:13.794Z,7.17
2017-04-23T04:47:49.835Z,7.21
2017-04-23T04:48:16.987Z,7.08
2017-04-23T04:48:53.033Z,7.04
2017-04-23T04:49:15.592Z,7.05
2017-04-23T04:49:37.332Z,7.08
2017-04-23T04:49:59.134Z,7.12
2017-04-23T04:50:20.888Z,7.12
2017-04-23T04:50:42.626Z,7.10
2017-04-23T04:51:04.335Z,7.11
2017-04-23T04:51:26.050Z,7.17
2017-04-23T04:51:47.859Z,7.30
2017-04-23T04:52:09.564Z,7.30
2017-04-23T04:52:31.289Z,7.25
2017-04-23T04:52:53.059Z,7.23
2017-04-23T04:53:14.946Z,7.17
2017-04-23T04:53:36.724Z,7.19
2017-04-23T04:54:35.183Z,7.21
2017-04-23T04:55:11.317Z,7.00
2017-04-23T04:55:43.266Z,6.85
2017-04-23T04:56:14.559Z,6.82
2017-04-23T04:56:36.301Z,6.82
2017-04-23T04:56:58.132Z,6.85
2017-04-23T04:58:00.748Z,6.82
2017-04-23T04:58:22.583Z,6.89
2017-04-23T04:58:44.399Z,6.87
2017-04-23T04:59:06.186Z,6.62
2017-04-23T04:59:27.918Z,6.57
2017-04-23T04:59:49.930Z,6.69
2017-04-23T05:00:11.574Z,6.72
2017-04-23T05:00:33.355Z,6.79
2017-04-23T05:00:55.122Z,6.76
2017-04-23T05:01:16.905Z,6.85
2017-04-23T05:01:38.688Z,6.92
2017-04-23T05:02:00.443Z,6.83
2017-04-23T05:02:22.236Z,6.67
2017-04-23T05:02:48.801Z,6.70
2017-04-23T05:03:24.824Z,6.76
2017-04-23T05:03:47.118Z,6.72
2017-04-23T05:04:08.907Z,6.74
2017-04-23T05:04:30.647Z,6.73
2017-04-23T05:04:52.406Z,6.67
2017-04-23T05:05:14.148Z,6.68
2017-04-23T05:05:35.892Z,6.74
2017-04-23T05:05:57.644Z,6.74
2017-04-23T05:06:19.401Z,6.77
2017-04-23T05:06:41.333Z,6.78
2017-04-23T05:07:03.089Z,6.76
2017-04-23T05:08:05.727Z,6.78
2017-04-23T05:08:27.461Z,6.77
2017-04-23T05:08:49.599Z,6.77
2017-04-23T05:09:52.114Z,6.88
2017-04-23T05:10:13.849Z,7.03
2017-04-23T05:10:35.573Z,7.12
2017-04-23T05:10:57.353Z,7.21
2017-04-23T05:11:19.104Z,7.12
2017-04-23T05:11:40.861Z,7.00
2017-04-23T05:12:02.668Z,6.97
2017-04-23T05:12:24.426Z,6.95
2017-04-23T05:12:46.199Z,6.79
2017-04-23T05:13:07.933Z,6.72
2017-04-23T05:13:29.743Z,6.64
2017-04-23T05:13:51.485Z,6.62
2017-04-23T05:14:13.186Z,6.71
2017-04-23T05:14:34.873Z,6.65
2017-04-23T05:14:56.645Z,6.61
2017-04-23T05:15:18.390Z,6.72
2017-04-23T05:15:44.914Z,6.69
2017-04-23T05:16:11.427Z,6.54
2017-04-23T05:16:33.179Z,6.57
2017-04-23T05:16:59.684Z,6.69
2017-04-23T05:17:21.377Z,6.65
2017-04-23T05:17:43.198Z,6.55
2017-04-23T05:18:04.945Z,6.60
2017-04-23T05:18:26.640Z,6.65
2017-04-23T05:18:48.354Z,6.72
2017-04-23T05:19:10.190Z,6.71
2017-04-23T05:19:46.220Z,6.78
2017-04-23T05:20:08.533Z,6.89
2017-04-23T05:20:30.381Z,6.93
2017-04-23T05:20:52.117Z,6.97
2017-04-23T05:21:13.815Z,6.99
2017-04-23T05:21:35.509Z,6.95
2017-04-23T05:21:57.268Z,6.93
2017-04-23T05:22:19.092Z,6.93
2017-04-23T05:22:40.832Z,6.88
2017-04-23T05:23:02.567Z,6.88
2017-04-23T05:23:24.320Z,6.81
2017-04-23T05:23:46.142Z,6.71
2017-04-23T05:24:07.886Z,6.59
2017-04-23T05:24:29.635Z,6.58
2017-04-23T05:24:51.389Z,6.61
2017-04-23T05:25:13.114Z,6.66
2017-04-23T05:25:34.878Z,6.78
2017-04-23T05:25:56.626Z,6.77
2017-04-23T05:26:18.358Z,6.76
2017-04-23T05:26:40.108Z,6.80
2017-04-23T05:27:01.839Z,6.77
2017-04-23T05:27:23.600Z,6.74
2017-04-23T05:27:45.529Z,6.77
2017-04-23T05:28:07.271Z,6.86
2017-04-23T05:28:29.028Z,6.92
2017-04-23T05:28:50.806Z,6.98
2017-04-23T05:29:12.717Z,7.08
2017-04-23T05:29:34.476Z,7.07
2017-04-23T05:29:56.249Z,7.05
2017-04-23T05:30:17.978Z,7.07
2017-04-23T05:30:39.843Z,7.13
2017-04-23T05:31:01.590Z,7.13
2017-04-23T05:31:23.343Z,7.18
2017-04-23T05:31:45.127Z,7.21
2017-04-23T05:32:06.983Z,7.03
2017-04-23T05:32:28.722Z,7.04
2017-04-23T05:32:50.535Z,7.07
2017-04-23T05:33:12.301Z,7.14
2017-04-23T05:33:34.096Z,7.15
2017-04-23T05:33:55.837Z,7.13
2017-04-23T05:34:17.691Z,7.09
2017-04-23T05:34:39.520Z,7.17
2017-04-23T05:35:01.259Z,7.20
2017-04-23T05:35:23.013Z,7.29
2017-04-23T05:35:44.789Z,7.37
2017-04-23T05:36:06.530Z,7.42
2017-04-23T05:36:28.282Z,7.22
2017-04-23T05:36:50.154Z,7.11
2017-04-23T05:37:11.894Z,7.12
2017-04-23T05:38:14.417Z,6.94
2017-04-23T05:38:45.497Z,6.97
2017-04-23T05:39:07.264Z,7.09
2017-04-23T05:39:29.016Z,7.08
2017-04-23T05:39:50.761Z,7.09
2017-04-23T05:40:12.502Z,7.09
2017-04-23T05:40:34.247Z,7.09
2017-04-23T05:40:56.056Z,7.22
2017-04-23T05:41:17.786Z,7.15
2017-04-23T05:41:39.528Z,7.18
2017-04-23T05:42:01.278Z,7.22
2017-04-23T05:42:23.020Z,7.20
2017-04-23T05:42:59.069Z,7.25
2017-04-23T05:43:24.001Z,7.29
2017-04-23T05:43:50.534Z,7.35
2017-04-23T05:44:12.263Z,7.33
2017-04-23T05:45:14.813Z,7.28
2017-04-23T05:46:17.433Z,7.17
2017-04-23T05:46:53.528Z,7.10
2017-04-23T05:47:15.746Z,7.15
2017-04-23T05:47:37.548Z,7.10